sensor_id;sensor_type;location;lat;lon;timestamp;P1;durP1;ratioP1;P2;durP2;ratioP2
9799;SDS011;4939;52.00085300;4.17406100;2023-05-10T00:00:50;60.58;;;24.02;;
9799;SDS011;4939;52.00085300;4.17406100;2023-05-10T00:03:16;59.65;;;23.58;;
9799;SDS011;4939;52.00085300;4.17406100;2023-05-10T00:05:42;64.18;;;24.23;;
9799;SDS011;4939;52.00085300;4.17406100;2023-05-10T00:08:08;60.53;;;22.85;;
9799;SDS011;4939;52.00085300;4.17406100;2023-05-10T00:10:33;53.10;;;22.25;;
9799;SDS011;4939;52.00085300;4.17406100;2023-05-10T00:12:59;60.92;;;23.63;;
9799;SDS011;4939;52.00085300;4.17406100;2023-05-10T00:15:25;59.20;;;22.10;;
9799;SDS011;4939;52.00085300;4.17406100;2023-05-10T00:17:51;73.75;;;23.58;;
9799;SDS011;4939;52.00085300;4.17406100;2023-05-10T00:20:16;74.05;;;24.05;;
9799;SDS011;4939;52.00085300;4.17406100;2023-05-10T00:22:43;72.43;;;23.88;;
9799;SDS011;4939;52.00085300;4.17406100;2023-05-10T00:25:08;68.60;;;22.65;;
9799;SDS011;4939;52.00085300;4.17406100;2023-05-10T00:27:35;68.82;;;21.88;;
9799;SDS011;4939;52.00085300;4.17406100;2023-05-10T00:30:01;71.40;;;22.02;;
9799;SDS011;4939;52.00085300;4.17406100;2023-05-10T00:32:27;70.00;;;21.50;;
9799;SDS011;4939;52.00085300;4.17406100;2023-05-10T00:34:53;68.65;;;20.75;;
9799;SDS011;4939;52.00085300;4.17406100;2023-05-10T00:37:19;73.10;;;21.98;;
9799;SDS011;4939;52.00085300;4.17406100;2023-05-10T00:39:45;71.03;;;21.20;;
9799;SDS011;4939;52.00085300;4.17406100;2023-05-10T00:42:11;67.20;;;20.83;;
9799;SDS011;4939;52.00085300;4.17406100;2023-05-10T00:44:36;65.97;;;19.90;;
9799;SDS011;4939;52.00085300;4.17406100;2023-05-10T00:47:02;73.68;;;21.13;;
9799;SDS011;4939;52.00085300;4.17406100;2023-05-10T00:49:28;69.43;;;19.60;;
9799;SDS011;4939;52.00085300;4.17406100;2023-05-10T00:51:55;72.22;;;20.48;;
9799;SDS011;4939;52.00085300;4.17406100;2023-05-10T00:54:20;62.45;;;19.08;;
9799;SDS011;4939;52.00085300;4.17406100;2023-05-10T00:56:46;63.90;;;19.23;;
9799;SDS011;4939;52.00085300;4.17406100;2023-05-10T00:59:17;55.65;;;17.92;;
9799;SDS011;4939;52.00085300;4.17406100;2023-05-10T01:01:44;62.10;;;19.65;;
9799;SDS011;4939;52.00085300;4.17406100;2023-05-10T01:04:11;58.78;;;20.23;;
9799;SDS011;4939;52.00085300;4.17406100;2023-05-10T01:06:38;57.83;;;20.55;;
9799;SDS011;4939;52.00085300;4.17406100;2023-05-10T01:09:07;56.53;;;20.98;;
9799;SDS011;4939;52.00085300;4.17406100;2023-05-10T01:11:34;45.65;;;18.33;;
9799;SDS011;4939;52.00085300;4.17406100;2023-05-10T01:14:01;50.63;;;20.20;;
9799;SDS011;4939;52.00085300;4.17406100;2023-05-10T01:16:27;46.15;;;19.70;;
9799;SDS011;4939;52.00085300;4.17406100;2023-05-10T01:18:57;51.28;;;21.45;;
9799;SDS011;4939;52.00085300;4.17406100;2023-05-10T01:29:31;40.67;;;15.38;;
9799;SDS011;4939;52.00085300;4.17406100;2023-05-10T01:35:10;33.67;;;12.98;;
9799;SDS011;4939;52.00085300;4.17406100;2023-05-10T01:37:45;29.70;;;11.55;;
9799;SDS011;4939;52.00085300;4.17406100;2023-05-10T01:40:19;35.90;;;14.80;;
9799;SDS011;4939;52.00085300;4.17406100;2023-05-10T01:43:02;36.92;;;13.68;;
9799;SDS011;4939;52.00085300;4.17406100;2023-05-10T01:45:41;32.27;;;13.03;;
9799;SDS011;4939;52.00085300;4.17406100;2023-05-10T01:48:35;30.13;;;12.90;;
9799;SDS011;4939;52.00085300;4.17406100;2023-05-10T01:51:21;37.70;;;15.07;;
9799;SDS011;4939;52.00085300;4.17406100;2023-05-10T01:53:54;41.00;;;15.23;;
9799;SDS011;4939;52.00085300;4.17406100;2023-05-10T01:56:25;34.15;;;13.88;;
9799;SDS011;4939;52.00085300;4.17406100;2023-05-10T01:58:52;34.75;;;13.48;;
9799;SDS011;4939;52.00085300;4.17406100;2023-05-10T02:01:20;27.45;;;10.70;;
9799;SDS011;4939;52.00085300;4.17406100;2023-05-10T02:03:47;30.17;;;12.65;;
9799;SDS011;4939;52.00085300;4.17406100;2023-05-10T02:06:15;37.42;;;15.05;;
9799;SDS011;4939;52.00085300;4.17406100;2023-05-10T02:08:43;30.50;;;11.63;;
9799;SDS011;4939;52.00085300;4.17406100;2023-05-10T02:11:11;34.10;;;12.23;;
9799;SDS011;4939;52.00085300;4.17406100;2023-05-10T02:13:39;35.78;;;14.35;;
9799;SDS011;4939;52.00085300;4.17406100;2023-05-10T02:16:06;33.50;;;13.82;;
9799;SDS011;4939;52.00085300;4.17406100;2023-05-10T02:18:33;42.65;;;16.52;;
9799;SDS011;4939;52.00085300;4.17406100;2023-05-10T02:21:02;36.72;;;14.07;;
9799;SDS011;4939;52.00085300;4.17406100;2023-05-10T02:23:28;34.10;;;13.38;;
9799;SDS011;4939;52.00085300;4.17406100;2023-05-10T02:25:55;32.42;;;11.30;;
9799;SDS011;4939;52.00085300;4.17406100;2023-05-10T02:28:23;33.85;;;12.45;;
9799;SDS011;4939;52.00085300;4.17406100;2023-05-10T02:30:50;37.38;;;14.27;;
9799;SDS011;4939;52.00085300;4.17406100;2023-05-10T02:33:17;39.33;;;14.07;;
9799;SDS011;4939;52.00085300;4.17406100;2023-05-10T02:35:45;42.45;;;13.32;;
9799;SDS011;4939;52.00085300;4.17406100;2023-05-10T02:38:11;50.20;;;14.90;;
9799;SDS011;4939;52.00085300;4.17406100;2023-05-10T02:40:41;48.45;;;15.68;;
9799;SDS011;4939;52.00085300;4.17406100;2023-05-10T02:43:12;48.20;;;14.95;;
9799;SDS011;4939;52.00085300;4.17406100;2023-05-10T02:45:39;43.05;;;14.48;;
9799;SDS011;4939;52.00085300;4.17406100;2023-05-10T02:48:06;46.08;;;13.38;;
9799;SDS011;4939;52.00085300;4.17406100;2023-05-10T02:50:33;39.80;;;12.48;;
9799;SDS011;4939;52.00085300;4.17406100;2023-05-10T02:53:00;45.92;;;12.27;;
9799;SDS011;4939;52.00085300;4.17406100;2023-05-10T02:55:31;45.42;;;11.43;;
9799;SDS011;4939;52.00085300;4.17406100;2023-05-10T02:58:05;49.22;;;12.18;;
9799;SDS011;4939;52.00085300;4.17406100;2023-05-10T03:00:31;61.20;;;13.10;;
9799;SDS011;4939;52.00085300;4.17406100;2023-05-10T03:02:57;49.13;;;12.73;;
9799;SDS011;4939;52.00085300;4.17406100;2023-05-10T03:05:23;57.97;;;14.05;;
9799;SDS011;4939;52.00085300;4.17406100;2023-05-10T03:07:49;63.95;;;13.80;;
9799;SDS011;4939;52.00085300;4.17406100;2023-05-10T03:10:16;65.38;;;13.43;;
9799;SDS011;4939;52.00085300;4.17406100;2023-05-10T03:20:48;78.43;;;15.95;;
9799;SDS011;4939;52.00085300;4.17406100;2023-05-10T03:25:48;75.38;;;16.55;;
9799;SDS011;4939;52.00085300;4.17406100;2023-05-10T03:28:15;70.22;;;14.27;;
9799;SDS011;4939;52.00085300;4.17406100;2023-05-10T03:30:43;78.40;;;13.77;;
9799;SDS011;4939;52.00085300;4.17406100;2023-05-10T03:33:08;82.18;;;13.75;;
9799;SDS011;4939;52.00085300;4.17406100;2023-05-10T03:35:34;88.97;;;14.57;;
9799;SDS011;4939;52.00085300;4.17406100;2023-05-10T03:38:00;74.85;;;12.80;;
9799;SDS011;4939;52.00085300;4.17406100;2023-05-10T03:40:26;68.30;;;11.90;;
9799;SDS011;4939;52.00085300;4.17406100;2023-05-10T03:42:54;61.95;;;11.90;;
9799;SDS011;4939;52.00085300;4.17406100;2023-05-10T03:45:20;81.63;;;12.32;;
9799;SDS011;4939;52.00085300;4.17406100;2023-05-10T03:47:47;85.85;;;13.00;;
9799;SDS011;4939;52.00085300;4.17406100;2023-05-10T03:50:12;82.90;;;13.00;;
9799;SDS011;4939;52.00085300;4.17406100;2023-05-10T03:52:38;61.17;;;10.82;;
9799;SDS011;4939;52.00085300;4.17406100;2023-05-10T03:55:06;22.88;;;8.30;;
9799;SDS011;4939;52.00085300;4.17406100;2023-05-10T03:57:33;26.02;;;10.27;;
9799;SDS011;4939;52.00085300;4.17406100;2023-05-10T03:59:59;25.08;;;8.98;;
9799;SDS011;4939;52.00085300;4.17406100;2023-05-10T04:02:25;17.85;;;8.35;;
9799;SDS011;4939;52.00085300;4.17406100;2023-05-10T04:04:50;15.98;;;6.45;;
9799;SDS011;4939;52.00085300;4.17406100;2023-05-10T04:07:16;15.30;;;5.97;;
9799;SDS011;4939;52.00085300;4.17406100;2023-05-10T04:09:43;13.77;;;4.85;;
9799;SDS011;4939;52.00085300;4.17406100;2023-05-10T04:12:08;12.23;;;4.82;;
9799;SDS011;4939;52.00085300;4.17406100;2023-05-10T04:14:34;11.27;;;4.78;;
9799;SDS011;4939;52.00085300;4.17406100;2023-05-10T04:17:00;14.90;;;5.70;;
9799;SDS011;4939;52.00085300;4.17406100;2023-05-10T04:19:32;15.80;;;6.32;;
9799;SDS011;4939;52.00085300;4.17406100;2023-05-10T04:21:58;19.53;;;7.37;;
9799;SDS011;4939;52.00085300;4.17406100;2023-05-10T04:24:24;21.05;;;7.35;;
9799;SDS011;4939;52.00085300;4.17406100;2023-05-10T04:26:51;18.88;;;7.28;;
9799;SDS011;4939;52.00085300;4.17406100;2023-05-10T04:29:16;19.92;;;6.78;;
9799;SDS011;4939;52.00085300;4.17406100;2023-05-10T04:31:42;27.13;;;8.45;;
9799;SDS011;4939;52.00085300;4.17406100;2023-05-10T04:34:08;51.35;;;9.98;;
9799;SDS011;4939;52.00085300;4.17406100;2023-05-10T04:36:33;41.80;;;9.93;;
9799;SDS011;4939;52.00085300;4.17406100;2023-05-10T04:39:01;43.50;;;9.80;;
9799;SDS011;4939;52.00085300;4.17406100;2023-05-10T04:41:30;46.10;;;9.32;;
9799;SDS011;4939;52.00085300;4.17406100;2023-05-10T04:43:56;42.45;;;8.82;;
9799;SDS011;4939;52.00085300;4.17406100;2023-05-10T04:46:22;42.35;;;9.32;;
9799;SDS011;4939;52.00085300;4.17406100;2023-05-10T04:48:47;44.33;;;10.65;;
9799;SDS011;4939;52.00085300;4.17406100;2023-05-10T04:51:13;41.67;;;10.38;;
9799;SDS011;4939;52.00085300;4.17406100;2023-05-10T04:53:39;37.13;;;9.90;;
9799;SDS011;4939;52.00085300;4.17406100;2023-05-10T04:56:05;35.25;;;10.57;;
9799;SDS011;4939;52.00085300;4.17406100;2023-05-10T04:58:31;29.80;;;9.68;;
9799;SDS011;4939;52.00085300;4.17406100;2023-05-10T05:00:57;27.55;;;10.90;;
9799;SDS011;4939;52.00085300;4.17406100;2023-05-10T05:03:29;33.15;;;8.70;;
9799;SDS011;4939;52.00085300;4.17406100;2023-05-10T05:05:55;25.30;;;8.68;;
9799;SDS011;4939;52.00085300;4.17406100;2023-05-10T05:08:20;10.15;;;4.63;;
9799;SDS011;4939;52.00085300;4.17406100;2023-05-10T05:10:47;11.02;;;4.32;;
9799;SDS011;4939;52.00085300;4.17406100;2023-05-10T05:13:15;17.85;;;6.07;;
9799;SDS011;4939;52.00085300;4.17406100;2023-05-10T05:15:40;19.00;;;6.18;;
9799;SDS011;4939;52.00085300;4.17406100;2023-05-10T05:18:06;21.40;;;7.97;;
9799;SDS011;4939;52.00085300;4.17406100;2023-05-10T05:20:32;23.45;;;8.40;;
9799;SDS011;4939;52.00085300;4.17406100;2023-05-10T05:22:59;20.55;;;11.23;;
9799;SDS011;4939;52.00085300;4.17406100;2023-05-10T05:25:25;29.35;;;15.13;;
9799;SDS011;4939;52.00085300;4.17406100;2023-05-10T05:27:51;27.58;;;16.80;;
9799;SDS011;4939;52.00085300;4.17406100;2023-05-10T05:30:16;26.13;;;14.55;;
9799;SDS011;4939;52.00085300;4.17406100;2023-05-10T05:32:42;27.95;;;14.52;;
9799;SDS011;4939;52.00085300;4.17406100;2023-05-10T05:35:08;31.80;;;14.40;;
9799;SDS011;4939;52.00085300;4.17406100;2023-05-10T05:37:34;29.23;;;14.32;;
9799;SDS011;4939;52.00085300;4.17406100;2023-05-10T05:40:00;39.92;;;15.80;;
9799;SDS011;4939;52.00085300;4.17406100;2023-05-10T05:42:26;33.15;;;14.25;;
9799;SDS011;4939;52.00085300;4.17406100;2023-05-10T05:44:52;30.50;;;12.25;;
9799;SDS011;4939;52.00085300;4.17406100;2023-05-10T05:47:18;26.08;;;9.32;;
9799;SDS011;4939;52.00085300;4.17406100;2023-05-10T05:49:44;23.65;;;9.77;;
9799;SDS011;4939;52.00085300;4.17406100;2023-05-10T05:52:12;21.80;;;8.57;;
9799;SDS011;4939;52.00085300;4.17406100;2023-05-10T05:54:38;19.52;;;8.43;;
9799;SDS011;4939;52.00085300;4.17406100;2023-05-10T05:57:05;13.63;;;6.45;;
9799;SDS011;4939;52.00085300;4.17406100;2023-05-10T05:59:30;15.38;;;6.88;;
9799;SDS011;4939;52.00085300;4.17406100;2023-05-10T06:01:56;13.45;;;5.45;;
9799;SDS011;4939;52.00085300;4.17406100;2023-05-10T06:04:22;11.32;;;5.75;;
9799;SDS011;4939;52.00085300;4.17406100;2023-05-10T06:06:48;16.77;;;5.80;;
9799;SDS011;4939;52.00085300;4.17406100;2023-05-10T06:09:14;16.58;;;5.57;;
9799;SDS011;4939;52.00085300;4.17406100;2023-05-10T06:11:40;15.30;;;5.40;;
9799;SDS011;4939;52.00085300;4.17406100;2023-05-10T06:14:06;10.68;;;4.53;;
9799;SDS011;4939;52.00085300;4.17406100;2023-05-10T06:16:35;10.98;;;4.80;;
9799;SDS011;4939;52.00085300;4.17406100;2023-05-10T06:19:01;13.30;;;4.95;;
9799;SDS011;4939;52.00085300;4.17406100;2023-05-10T06:21:27;17.17;;;5.20;;
9799;SDS011;4939;52.00085300;4.17406100;2023-05-10T06:23:53;13.38;;;4.63;;
9799;SDS011;4939;52.00085300;4.17406100;2023-05-10T06:26:19;13.57;;;5.20;;
9799;SDS011;4939;52.00085300;4.17406100;2023-05-10T06:28:45;11.55;;;4.38;;
9799;SDS011;4939;52.00085300;4.17406100;2023-05-10T06:31:12;13.75;;;5.63;;
9799;SDS011;4939;52.00085300;4.17406100;2023-05-10T06:33:37;16.98;;;6.22;;
9799;SDS011;4939;52.00085300;4.17406100;2023-05-10T06:36:03;13.23;;;6.15;;
9799;SDS011;4939;52.00085300;4.17406100;2023-05-10T06:38:29;11.88;;;5.38;;
9799;SDS011;4939;52.00085300;4.17406100;2023-05-10T06:40:55;16.83;;;5.88;;
9799;SDS011;4939;52.00085300;4.17406100;2023-05-10T06:43:21;12.73;;;6.32;;
9799;SDS011;4939;52.00085300;4.17406100;2023-05-10T06:45:47;16.73;;;6.32;;
9799;SDS011;4939;52.00085300;4.17406100;2023-05-10T06:48:13;11.60;;;5.35;;
9799;SDS011;4939;52.00085300;4.17406100;2023-05-10T06:50:39;13.65;;;6.30;;
9799;SDS011;4939;52.00085300;4.17406100;2023-05-10T06:53:04;16.38;;;5.90;;
9799;SDS011;4939;52.00085300;4.17406100;2023-05-10T06:55:30;14.70;;;6.32;;
9799;SDS011;4939;52.00085300;4.17406100;2023-05-10T06:57:56;13.70;;;6.20;;
9799;SDS011;4939;52.00085300;4.17406100;2023-05-10T07:00:22;12.73;;;5.95;;
9799;SDS011;4939;52.00085300;4.17406100;2023-05-10T07:02:48;12.18;;;5.57;;
9799;SDS011;4939;52.00085300;4.17406100;2023-05-10T07:05:13;16.33;;;6.50;;
9799;SDS011;4939;52.00085300;4.17406100;2023-05-10T07:07:40;11.13;;;6.05;;
9799;SDS011;4939;52.00085300;4.17406100;2023-05-10T07:10:06;12.55;;;5.70;;
9799;SDS011;4939;52.00085300;4.17406100;2023-05-10T07:12:32;12.48;;;6.07;;
9799;SDS011;4939;52.00085300;4.17406100;2023-05-10T07:14:58;10.77;;;5.18;;
9799;SDS011;4939;52.00085300;4.17406100;2023-05-10T07:17:24;13.75;;;5.05;;
9799;SDS011;4939;52.00085300;4.17406100;2023-05-10T07:19:50;11.02;;;5.18;;
9799;SDS011;4939;52.00085300;4.17406100;2023-05-10T07:22:15;12.07;;;5.65;;
9799;SDS011;4939;52.00085300;4.17406100;2023-05-10T07:24:42;12.32;;;5.53;;
9799;SDS011;4939;52.00085300;4.17406100;2023-05-10T07:27:08;10.80;;;5.15;;
9799;SDS011;4939;52.00085300;4.17406100;2023-05-10T07:29:34;10.63;;;4.90;;
9799;SDS011;4939;52.00085300;4.17406100;2023-05-10T07:32:09;9.48;;;4.55;;
9799;SDS011;4939;52.00085300;4.17406100;2023-05-10T07:34:47;8.00;;;3.85;;
9799;SDS011;4939;52.00085300;4.17406100;2023-05-10T07:37:13;7.78;;;3.42;;
9799;SDS011;4939;52.00085300;4.17406100;2023-05-10T07:39:39;15.60;;;4.45;;
9799;SDS011;4939;52.00085300;4.17406100;2023-05-10T07:42:05;7.82;;;4.45;;
9799;SDS011;4939;52.00085300;4.17406100;2023-05-10T07:44:31;7.38;;;3.83;;
9799;SDS011;4939;52.00085300;4.17406100;2023-05-10T07:46:57;9.02;;;4.85;;
9799;SDS011;4939;52.00085300;4.17406100;2023-05-10T07:49:22;14.73;;;4.35;;
9799;SDS011;4939;52.00085300;4.17406100;2023-05-10T07:51:49;12.25;;;4.80;;
9799;SDS011;4939;52.00085300;4.17406100;2023-05-10T07:54:15;10.00;;;5.03;;
9799;SDS011;4939;52.00085300;4.17406100;2023-05-10T07:56:41;18.17;;;6.20;;
9799;SDS011;4939;52.00085300;4.17406100;2023-05-10T07:59:14;12.13;;;5.70;;
9799;SDS011;4939;52.00085300;4.17406100;2023-05-10T08:01:41;15.35;;;6.35;;
9799;SDS011;4939;52.00085300;4.17406100;2023-05-10T08:04:07;14.73;;;6.78;;
9799;SDS011;4939;52.00085300;4.17406100;2023-05-10T08:06:33;13.43;;;6.35;;
9799;SDS011;4939;52.00085300;4.17406100;2023-05-10T08:08:59;11.05;;;5.57;;
9799;SDS011;4939;52.00085300;4.17406100;2023-05-10T08:11:25;9.75;;;4.47;;
9799;SDS011;4939;52.00085300;4.17406100;2023-05-10T08:13:52;10.60;;;4.60;;
9799;SDS011;4939;52.00085300;4.17406100;2023-05-10T08:16:18;11.05;;;5.22;;
9799;SDS011;4939;52.00085300;4.17406100;2023-05-10T08:18:45;10.95;;;4.70;;
9799;SDS011;4939;52.00085300;4.17406100;2023-05-10T08:21:12;9.00;;;4.53;;
9799;SDS011;4939;52.00085300;4.17406100;2023-05-10T08:23:38;12.10;;;4.30;;
9799;SDS011;4939;52.00085300;4.17406100;2023-05-10T08:26:04;11.52;;;4.32;;
9799;SDS011;4939;52.00085300;4.17406100;2023-05-10T08:28:30;10.30;;;3.45;;
9799;SDS011;4939;52.00085300;4.17406100;2023-05-10T08:30:56;11.07;;;3.88;;
9799;SDS011;4939;52.00085300;4.17406100;2023-05-10T08:33:22;8.27;;;4.05;;
9799;SDS011;4939;52.00085300;4.17406100;2023-05-10T08:35:48;11.93;;;4.57;;
9799;SDS011;4939;52.00085300;4.17406100;2023-05-10T08:38:13;10.45;;;4.78;;
9799;SDS011;4939;52.00085300;4.17406100;2023-05-10T08:40:41;10.02;;;4.90;;
9799;SDS011;4939;52.00085300;4.17406100;2023-05-10T08:43:08;9.90;;;3.97;;
9799;SDS011;4939;52.00085300;4.17406100;2023-05-10T08:45:39;8.88;;;3.58;;
9799;SDS011;4939;52.00085300;4.17406100;2023-05-10T08:48:06;12.13;;;4.40;;
9799;SDS011;4939;52.00085300;4.17406100;2023-05-10T08:50:35;10.98;;;4.38;;
9799;SDS011;4939;52.00085300;4.17406100;2023-05-10T08:53:04;9.55;;;4.00;;
9799;SDS011;4939;52.00085300;4.17406100;2023-05-10T08:55:40;9.70;;;3.90;;
9799;SDS011;4939;52.00085300;4.17406100;2023-05-10T08:58:07;8.90;;;4.30;;
9799;SDS011;4939;52.00085300;4.17406100;2023-05-10T09:00:34;11.98;;;4.45;;
9799;SDS011;4939;52.00085300;4.17406100;2023-05-10T09:03:02;12.02;;;4.45;;
9799;SDS011;4939;52.00085300;4.17406100;2023-05-10T09:05:29;8.88;;;4.25;;
9799;SDS011;4939;52.00085300;4.17406100;2023-05-10T09:07:55;8.70;;;4.30;;
9799;SDS011;4939;52.00085300;4.17406100;2023-05-10T09:10:21;8.98;;;4.03;;
9799;SDS011;4939;52.00085300;4.17406100;2023-05-10T09:12:48;7.85;;;4.10;;
9799;SDS011;4939;52.00085300;4.17406100;2023-05-10T09:15:15;7.93;;;3.38;;
9799;SDS011;4939;52.00085300;4.17406100;2023-05-10T09:17:44;9.13;;;4.07;;
9799;SDS011;4939;52.00085300;4.17406100;2023-05-10T09:20:10;8.90;;;4.32;;
9799;SDS011;4939;52.00085300;4.17406100;2023-05-10T09:22:36;7.03;;;3.50;;
9799;SDS011;4939;52.00085300;4.17406100;2023-05-10T09:27:33;10.07;;;3.58;;
9799;SDS011;4939;52.00085300;4.17406100;2023-05-10T09:29:59;8.70;;;3.60;;
9799;SDS011;4939;52.00085300;4.17406100;2023-05-10T09:32:41;6.28;;;3.60;;
9799;SDS011;4939;52.00085300;4.17406100;2023-05-10T09:35:12;7.70;;;4.10;;
9799;SDS011;4939;52.00085300;4.17406100;2023-05-10T09:37:40;10.07;;;4.50;;
9799;SDS011;4939;52.00085300;4.17406100;2023-05-10T09:40:11;8.43;;;4.88;;
9799;SDS011;4939;52.00085300;4.17406100;2023-05-10T09:42:39;8.10;;;4.40;;
9799;SDS011;4939;52.00085300;4.17406100;2023-05-10T09:45:27;7.78;;;3.80;;
9799;SDS011;4939;52.00085300;4.17406100;2023-05-10T09:47:57;7.55;;;4.60;;
9799;SDS011;4939;52.00085300;4.17406100;2023-05-10T09:50:24;9.05;;;4.45;;
9799;SDS011;4939;52.00085300;4.17406100;2023-05-10T09:52:51;8.50;;;4.80;;
9799;SDS011;4939;52.00085300;4.17406100;2023-05-10T09:55:19;9.90;;;5.07;;
9799;SDS011;4939;52.00085300;4.17406100;2023-05-10T09:57:47;8.50;;;5.07;;
9799;SDS011;4939;52.00085300;4.17406100;2023-05-10T10:00:20;8.40;;;4.65;;
9799;SDS011;4939;52.00085300;4.17406100;2023-05-10T10:02:47;11.63;;;5.20;;
9799;SDS011;4939;52.00085300;4.17406100;2023-05-10T10:05:19;16.23;;;5.20;;
9799;SDS011;4939;52.00085300;4.17406100;2023-05-10T10:07:45;9.23;;;5.10;;
9799;SDS011;4939;52.00085300;4.17406100;2023-05-10T10:10:11;9.38;;;5.18;;
9799;SDS011;4939;52.00085300;4.17406100;2023-05-10T10:12:38;11.05;;;5.35;;
9799;SDS011;4939;52.00085300;4.17406100;2023-05-10T10:15:06;10.38;;;4.90;;
9799;SDS011;4939;52.00085300;4.17406100;2023-05-10T10:17:33;8.65;;;4.55;;
9799;SDS011;4939;52.00085300;4.17406100;2023-05-10T10:20:13;12.77;;;5.68;;
9799;SDS011;4939;52.00085300;4.17406100;2023-05-10T10:22:40;12.85;;;5.38;;
9799;SDS011;4939;52.00085300;4.17406100;2023-05-10T10:25:06;12.23;;;5.43;;
9799;SDS011;4939;52.00085300;4.17406100;2023-05-10T10:30:21;12.18;;;5.28;;
9799;SDS011;4939;52.00085300;4.17406100;2023-05-10T10:33:30;8.50;;;4.35;;
9799;SDS011;4939;52.00085300;4.17406100;2023-05-10T10:36:20;12.45;;;4.55;;
9799;SDS011;4939;52.00085300;4.17406100;2023-05-10T10:46:59;10.40;;;4.07;;
9799;SDS011;4939;52.00085300;4.17406100;2023-05-10T10:49:30;11.07;;;4.30;;
9799;SDS011;4939;52.00085300;4.17406100;2023-05-10T10:52:14;9.15;;;4.03;;
9799;SDS011;4939;52.00085300;4.17406100;2023-05-10T10:54:59;10.27;;;4.25;;
9799;SDS011;4939;52.00085300;4.17406100;2023-05-10T10:57:42;10.05;;;3.92;;
9799;SDS011;4939;52.00085300;4.17406100;2023-05-10T11:02:52;11.43;;;4.47;;
9799;SDS011;4939;52.00085300;4.17406100;2023-05-10T11:05:25;10.02;;;4.60;;
9799;SDS011;4939;52.00085300;4.17406100;2023-05-10T11:07:51;11.45;;;4.65;;
9799;SDS011;4939;52.00085300;4.17406100;2023-05-10T11:10:21;11.10;;;4.93;;
9799;SDS011;4939;52.00085300;4.17406100;2023-05-10T11:12:51;12.02;;;5.05;;
9799;SDS011;4939;52.00085300;4.17406100;2023-05-10T11:15:19;10.07;;;4.00;;
9799;SDS011;4939;52.00085300;4.17406100;2023-05-10T11:17:45;14.77;;;4.70;;
9799;SDS011;4939;52.00085300;4.17406100;2023-05-10T11:20:17;12.30;;;4.57;;
9799;SDS011;4939;52.00085300;4.17406100;2023-05-10T11:25:17;10.80;;;4.65;;
9799;SDS011;4939;52.00085300;4.17406100;2023-05-10T11:27:43;10.02;;;4.32;;
9799;SDS011;4939;52.00085300;4.17406100;2023-05-10T11:30:10;12.68;;;5.05;;
9799;SDS011;4939;52.00085300;4.17406100;2023-05-10T11:32:40;11.57;;;5.00;;
9799;SDS011;4939;52.00085300;4.17406100;2023-05-10T11:35:06;13.07;;;4.70;;
9799;SDS011;4939;52.00085300;4.17406100;2023-05-10T11:37:33;13.80;;;5.38;;
9799;SDS011;4939;52.00085300;4.17406100;2023-05-10T11:39:59;9.55;;;4.38;;
9799;SDS011;4939;52.00085300;4.17406100;2023-05-10T11:42:25;11.27;;;4.78;;
9799;SDS011;4939;52.00085300;4.17406100;2023-05-10T11:44:53;10.55;;;4.25;;
9799;SDS011;4939;52.00085300;4.17406100;2023-05-10T11:47:19;10.80;;;4.40;;
9799;SDS011;4939;52.00085300;4.17406100;2023-05-10T11:49:46;11.00;;;4.88;;
9799;SDS011;4939;52.00085300;4.17406100;2023-05-10T11:52:12;11.90;;;4.93;;
9799;SDS011;4939;52.00085300;4.17406100;2023-05-10T11:54:46;10.50;;;4.97;;
9799;SDS011;4939;52.00085300;4.17406100;2023-05-10T11:57:17;12.10;;;4.85;;
9799;SDS011;4939;52.00085300;4.17406100;2023-05-10T11:59:45;11.10;;;5.28;;
9799;SDS011;4939;52.00085300;4.17406100;2023-05-10T12:02:12;10.82;;;4.47;;
9799;SDS011;4939;52.00085300;4.17406100;2023-05-10T12:04:41;10.80;;;4.80;;
9799;SDS011;4939;52.00085300;4.17406100;2023-05-10T12:07:07;12.82;;;4.40;;
9799;SDS011;4939;52.00085300;4.17406100;2023-05-10T12:09:33;9.73;;;4.45;;
9799;SDS011;4939;52.00085300;4.17406100;2023-05-10T12:11:58;10.05;;;4.13;;
9799;SDS011;4939;52.00085300;4.17406100;2023-05-10T12:14:25;8.43;;;3.72;;
9799;SDS011;4939;52.00085300;4.17406100;2023-05-10T12:16:56;11.07;;;4.43;;
9799;SDS011;4939;52.00085300;4.17406100;2023-05-10T12:19:23;9.38;;;3.80;;
9799;SDS011;4939;52.00085300;4.17406100;2023-05-10T12:21:48;8.35;;;3.90;;
9799;SDS011;4939;52.00085300;4.17406100;2023-05-10T12:24:14;8.00;;;3.67;;
9799;SDS011;4939;52.00085300;4.17406100;2023-05-10T12:26:43;10.98;;;4.25;;
9799;SDS011;4939;52.00085300;4.17406100;2023-05-10T12:29:17;11.20;;;4.47;;
9799;SDS011;4939;52.00085300;4.17406100;2023-05-10T12:34:24;8.20;;;3.90;;
9799;SDS011;4939;52.00085300;4.17406100;2023-05-10T12:37:02;11.05;;;4.05;;
9799;SDS011;4939;52.00085300;4.17406100;2023-05-10T12:39:41;8.60;;;4.22;;
9799;SDS011;4939;52.00085300;4.17406100;2023-05-10T12:46:44;6.82;;;4.05;;
9799;SDS011;4939;52.00085300;4.17406100;2023-05-10T12:49:10;8.85;;;3.70;;
9799;SDS011;4939;52.00085300;4.17406100;2023-05-10T12:51:35;7.22;;;3.70;;
9799;SDS011;4939;52.00085300;4.17406100;2023-05-10T12:54:02;6.43;;;3.17;;
9799;SDS011;4939;52.00085300;4.17406100;2023-05-10T12:56:28;8.52;;;3.67;;
9799;SDS011;4939;52.00085300;4.17406100;2023-05-10T12:58:54;7.05;;;3.17;;
9799;SDS011;4939;52.00085300;4.17406100;2023-05-10T13:01:20;7.28;;;3.00;;
9799;SDS011;4939;52.00085300;4.17406100;2023-05-10T13:03:46;6.05;;;2.85;;
9799;SDS011;4939;52.00085300;4.17406100;2023-05-10T13:06:12;7.68;;;3.28;;
9799;SDS011;4939;52.00085300;4.17406100;2023-05-10T13:08:38;6.15;;;3.30;;
9799;SDS011;4939;52.00085300;4.17406100;2023-05-10T13:11:05;8.25;;;2.78;;
9799;SDS011;4939;52.00085300;4.17406100;2023-05-10T13:13:31;6.15;;;2.90;;
9799;SDS011;4939;52.00085300;4.17406100;2023-05-10T13:15:57;4.18;;;2.42;;
9799;SDS011;4939;52.00085300;4.17406100;2023-05-10T13:18:23;5.28;;;2.95;;
9799;SDS011;4939;52.00085300;4.17406100;2023-05-10T13:20:49;6.35;;;2.80;;
9799;SDS011;4939;52.00085300;4.17406100;2023-05-10T13:23:15;4.80;;;2.42;;
9799;SDS011;4939;52.00085300;4.17406100;2023-05-10T13:25:41;3.80;;;1.98;;
9799;SDS011;4939;52.00085300;4.17406100;2023-05-10T13:59:01;6.03;;;2.90;;
9799;SDS011;4939;52.00085300;4.17406100;2023-05-10T14:01:27;3.15;;;1.70;;
9799;SDS011;4939;52.00085300;4.17406100;2023-05-10T14:03:53;5.47;;;2.40;;
9799;SDS011;4939;52.00085300;4.17406100;2023-05-10T14:06:19;4.55;;;2.53;;
9799;SDS011;4939;52.00085300;4.17406100;2023-05-10T14:08:45;5.50;;;2.92;;
9799;SDS011;4939;52.00085300;4.17406100;2023-05-10T14:11:11;7.90;;;3.75;;
9799;SDS011;4939;52.00085300;4.17406100;2023-05-10T14:13:38;7.55;;;3.35;;
9799;SDS011;4939;52.00085300;4.17406100;2023-05-10T14:16:03;7.70;;;3.70;;
9799;SDS011;4939;52.00085300;4.17406100;2023-05-10T14:18:30;9.57;;;3.78;;
9799;SDS011;4939;52.00085300;4.17406100;2023-05-10T14:20:56;5.88;;;2.88;;